sensor_id;sensor_type;location;lat;lon;timestamp;pressure;altitude;pressure_sealevel;temperature;humidity
7660;BME280;3872;47.902;8.162;2022-11-20T00:02:09;91397.22;;;3.75;100.00
7660;BME280;3872;47.902;8.162;2022-11-20T00:04:36;91395.38;;;3.80;100.00
7660;BME280;3872;47.902;8.162;2022-11-20T00:07:03;91396.41;;;3.89;100.00
7660;BME280;3872;47.902;8.162;2022-11-20T00:09:29;91401.09;;;3.87;100.00
7660;BME280;3872;47.902;8.162;2022-11-20T00:11:56;91397.19;;;3.80;100.00
7660;BME280;3872;47.902;8.162;2022-11-20T00:14:24;91406.03;;;3.84;100.00
7660;BME280;3872;47.902;8.162;2022-11-20T00:16:50;91393.09;;;3.33;100.00
7660;BME280;3872;47.902;8.162;2022-11-20T00:19:17;91405.06;;;3.44;100.00
7660;BME280;3872;47.902;8.162;2022-11-20T00:21:43;91395.41;;;3.60;100.00
7660;BME280;3872;47.902;8.162;2022-11-20T00:24:10;91401.63;;;3.79;100.00
7660;BME280;3872;47.902;8.162;2022-11-20T00:26:37;91403.50;;;3.53;100.00
7660;BME280;3872;47.902;8.162;2022-11-20T00:29:03;91406.84;;;3.69;100.00
7660;BME280;3872;47.902;8.162;2022-11-20T00:31:31;91403.94;;;3.86;100.00
7660;BME280;3872;47.902;8.162;2022-11-20T00:33:59;91404.47;;;3.88;100.00
7660;BME280;3872;47.902;8.162;2022-11-20T00:36:27;91406.53;;;3.96;100.00
7660;BME280;3872;47.902;8.162;2022-11-20T00:38:55;91405.00;;;3.80;100.00
7660;BME280;3872;47.902;8.162;2022-11-20T00:41:23;91401.63;;;3.79;100.00
7660;BME280;3872;47.902;8.162;2022-11-20T00:43:51;91404.72;;;3.97;100.00
7660;BME280;3872;47.902;8.162;2022-11-20T00:46:19;91404.00;;;3.55;100.00
7660;BME280;3872;47.902;8.162;2022-11-20T00:48:47;91404.47;;;3.78;100.00
7660;BME280;3872;47.902;8.162;2022-11-20T00:51:16;91401.84;;;3.88;100.00
7660;BME280;3872;47.902;8.162;2022-11-20T00:53:44;91407.31;;;3.97;100.00
7660;BME280;3872;47.902;8.162;2022-11-20T00:56:12;91402.63;;;3.93;100.00
7660;BME280;3872;47.902;8.162;2022-11-20T00:58:42;91396.66;;;3.88;100.00
7660;BME280;3872;47.902;8.162;2022-11-20T01:01:10;91404.72;;;3.86;100.00
7660;BME280;3872;47.902;8.162;2022-11-20T01:03:39;91403.94;;;3.96;100.00
7660;BME280;3872;47.902;8.162;2022-11-20T01:06:10;91412.75;;;4.10;100.00
7660;BME280;3872;47.902;8.162;2022-11-20T01:08:38;91407.81;;;4.04;100.00
7660;BME280;3872;47.902;8.162;2022-11-20T01:11:06;91405.97;;;3.99;100.00
7660;BME280;3872;47.902;8.162;2022-11-20T01:13:33;91414.34;;;3.96;100.00
7660;BME280;3872;47.902;8.162;2022-11-20T01:16:07;91405.50;;;3.97;100.00
7660;BME280;3872;47.902;8.162;2022-11-20T01:18:35;91419.88;;;3.49;100.00
7660;BME280;3872;47.902;8.162;2022-11-20T01:21:03;91414.34;;;3.86;100.00
7660;BME280;3872;47.902;8.162;2022-11-20T01:23:33;91414.41;;;3.35;100.00
7660;BME280;3872;47.902;8.162;2022-11-20T01:26:01;91423.78;;;3.11;100.00
7660;BME280;3872;47.902;8.162;2022-11-20T01:28:29;91428.97;;;3.21;100.00
7660;BME280;3872;47.902;8.162;2022-11-20T01:30:56;91429.97;;;3.86;100.00
7660;BME280;3872;47.902;8.162;2022-11-20T01:33:23;91431.50;;;4.02;100.00
7660;BME280;3872;47.902;8.162;2022-11-20T01:35:49;91429.19;;;3.85;100.00
7660;BME280;3872;47.902;8.162;2022-11-20T01:38:16;91425.56;;;3.81;100.00
7660;BME280;3872;47.902;8.162;2022-11-20T01:40:44;91422.13;;;3.91;100.00
7660;BME280;3872;47.902;8.162;2022-11-20T01:43:14;91428.94;;;3.82;100.00
7660;BME280;3872;47.902;8.162;2022-11-20T01:46:14;91437.31;;;3.53;100.00
7660;BME280;3872;47.902;8.162;2022-11-20T01:48:46;91423.50;;;3.73;100.00
7660;BME280;3872;47.902;8.162;2022-11-20T01:51:19;91421.88;;;3.92;100.00
7660;BME280;3872;47.902;8.162;2022-11-20T01:53:48;91426.38;;;3.41;100.00
7660;BME280;3872;47.902;8.162;2022-11-20T01:56:17;91424.75;;;3.86;100.00
7660;BME280;3872;47.902;8.162;2022-11-20T01:58:49;91420.59;;;3.90;100.00
7660;BME280;3872;47.902;8.162;2022-11-20T02:01:17;91426.88;;;3.48;100.00
7660;BME280;3872;47.902;8.162;2022-11-20T02:03:44;91424.28;;;3.48;100.00
7660;BME280;3872;47.902;8.162;2022-11-20T02:06:16;91431.84;;;3.60;100.00
7660;BME280;3872;47.902;8.162;2022-11-20T02:08:45;91430.28;;;3.59;100.00
7660;BME280;3872;47.902;8.162;2022-11-20T02:11:11;91426.38;;;3.46;100.00
7660;BME280;3872;47.902;8.162;2022-11-20T02:13:40;91423.75;;;3.82;100.00
7660;BME280;3872;47.902;8.162;2022-11-20T02:16:13;91425.53;;;3.97;100.00
7660;BME280;3872;47.902;8.162;2022-11-20T02:18:40;91433.09;;;3.88;100.00
7660;BME280;3872;47.902;8.162;2022-11-20T02:24:10;91436.22;;;3.90;100.00
7660;BME280;3872;47.902;8.162;2022-11-20T02:26:41;91425.81;;;3.80;100.00
7660;BME280;3872;47.902;8.162;2022-11-20T02:29:09;91422.19;;;3.81;100.00
7660;BME280;3872;47.902;8.162;2022-11-20T02:31:37;91428.97;;;3.62;100.00
7660;BME280;3872;47.902;8.162;2022-11-20T02:34:05;91427.94;;;3.68;100.00
7660;BME280;3872;47.902;8.162;2022-11-20T02:36:33;91425.84;;;3.60;100.00
7660;BME280;3872;47.902;8.162;2022-11-20T02:39:01;91424.50;;;3.77;100.00
7660;BME280;3872;47.902;8.162;2022-11-20T02:41:35;91426.38;;;3.36;100.00
7660;BME280;3872;47.902;8.162;2022-11-20T02:44:03;91424.81;;;3.50;100.00
7660;BME280;3872;47.902;8.162;2022-11-20T02:46:30;91414.94;;;3.37;100.00
7660;BME280;3872;47.902;8.162;2022-11-20T02:48:57;91418.03;;;3.65;100.00
7660;BME280;3872;47.902;8.162;2022-11-20T02:51:23;91409.47;;;3.39;100.00
7660;BME280;3872;47.902;8.162;2022-11-20T02:53:50;91404.53;;;3.32;100.00
7660;BME280;3872;47.902;8.162;2022-11-20T02:56:16;91404.81;;;3.26;100.00
7660;BME280;3872;47.902;8.162;2022-11-20T02:58:44;91400.63;;;2.94;100.00
7660;BME280;3872;47.902;8.162;2022-11-20T03:01:11;91402.69;;;2.87;100.00
7660;BME280;3872;47.902;8.162;2022-11-20T03:03:38;91393.84;;;2.73;100.00
7660;BME280;3872;47.902;8.162;2022-11-20T03:06:05;91394.63;;;2.73;100.00
7660;BME280;3872;47.902;8.162;2022-11-20T03:08:32;91392.56;;;2.81;100.00
7660;BME280;3872;47.902;8.162;2022-11-20T03:11:02;91399.25;;;2.46;100.00
7660;BME280;3872;47.902;8.162;2022-11-20T03:13:29;91402.63;;;2.47;100.00
7660;BME280;3872;47.902;8.162;2022-11-20T03:15:57;91394.28;;;2.34;100.00
7660;BME280;3872;47.902;8.162;2022-11-20T03:18:23;91393.53;;;2.39;100.00
7660;BME280;3872;47.902;8.162;2022-11-20T03:20:56;91397.88;;;2.23;100.00
7660;BME280;3872;47.902;8.162;2022-11-20T03:23:23;91397.09;;;2.28;100.00
7660;BME280;3872;47.902;8.162;2022-11-20T03:25:50;91396.06;;;2.19;100.00
7660;BME280;3872;47.902;8.162;2022-11-20T03:28:16;91404.19;;;1.80;100.00
7660;BME280;3872;47.902;8.162;2022-11-20T03:30:43;91396.22;;;1.97;100.00
7660;BME280;3872;47.902;8.162;2022-11-20T03:33:11;91406.91;;;2.06;100.00
7660;BME280;3872;47.902;8.162;2022-11-20T03:35:37;91411.31;;;2.05;100.00
7660;BME280;3872;47.902;8.162;2022-11-20T03:38:04;91411.66;;;1.72;100.00
7660;BME280;3872;47.902;8.162;2022-11-20T03:40:30;91411.81;;;2.02;100.00
7660;BME280;3872;47.902;8.162;2022-11-20T03:42:57;91417.25;;;1.95;100.00
7660;BME280;3872;47.902;8.162;2022-11-20T03:45:24;91421.41;;;2.02;100.00
7660;BME280;3872;47.902;8.162;2022-11-20T03:47:50;91419.44;;;2.29;100.00
7660;BME280;3872;47.902;8.162;2022-11-20T03:50:18;91416.69;;;1.88;100.00
7660;BME280;3872;47.902;8.162;2022-11-20T03:52:44;91412.63;;;2.08;100.00
7660;BME280;3872;47.902;8.162;2022-11-20T03:55:11;91405.13;;;2.21;100.00
7660;BME280;3872;47.902;8.162;2022-11-20T03:57:38;91413.16;;;2.10;100.00
7660;BME280;3872;47.902;8.162;2022-11-20T04:00:05;91421.72;;;2.15;100.00
7660;BME280;3872;47.902;8.162;2022-11-20T04:02:32;91426.06;;;1.52;100.00
7660;BME280;3872;47.902;8.162;2022-11-20T04:04:59;91421.44;;;2.07;100.00
7660;BME280;3872;47.902;8.162;2022-11-20T04:07:27;91422.03;;;2.24;100.00
7660;BME280;3872;47.902;8.162;2022-11-20T04:09:53;91423.06;;;2.28;100.00
7660;BME280;3872;47.902;8.162;2022-11-20T04:12:20;91418.09;;;2.11;100.00
7660;BME280;3872;47.902;8.162;2022-11-20T04:14:46;91425.91;;;2.21;100.00
7660;BME280;3872;47.902;8.162;2022-11-20T04:17:13;91414.50;;;2.22;100.00
7660;BME280;3872;47.902;8.162;2022-11-20T04:19:39;91416.34;;;2.32;100.00
7660;BME280;3872;47.902;8.162;2022-11-20T04:22:06;91419.50;;;2.39;100.00
7660;BME280;3872;47.902;8.162;2022-11-20T04:24:34;91418.63;;;2.18;100.00
7660;BME280;3872;47.902;8.162;2022-11-20T04:27:00;91414.53;;;2.32;100.00
7660;BME280;3872;47.902;8.162;2022-11-20T04:29:27;91415.31;;;2.38;100.00
7660;BME280;3872;47.902;8.162;2022-11-20T04:31:53;91408.81;;;2.35;100.00
7660;BME280;3872;47.902;8.162;2022-11-20T04:34:20;91418.16;;;2.36;100.00
7660;BME280;3872;47.902;8.162;2022-11-20T04:36:46;91407.53;;;2.43;100.00
7660;BME280;3872;47.902;8.162;2022-11-20T04:39:14;91412.13;;;2.16;100.00
7660;BME280;3872;47.902;8.162;2022-11-20T04:41:42;91409.31;;;2.27;100.00
7660;BME280;3872;47.902;8.162;2022-11-20T04:44:09;91404.16;;;2.38;100.00
7660;BME280;3872;47.902;8.162;2022-11-20T04:46:37;91410.97;;;2.54;100.00
7660;BME280;3872;47.902;8.162;2022-11-20T04:49:05;91403.47;;;2.62;100.00
7660;BME280;3872;47.902;8.162;2022-11-20T04:51:32;91407.53;;;2.43;100.00
7660;BME280;3872;47.902;8.162;2022-11-20T04:53:59;91411.16;;;2.42;100.00
7660;BME280;3872;47.902;8.162;2022-11-20T04:56:26;91415.56;;;2.36;100.00
7660;BME280;3872;47.902;8.162;2022-11-20T04:58:54;91416.09;;;2.39;100.00
7660;BME280;3872;47.902;8.162;2022-11-20T05:01:22;91417.69;;;2.40;100.00
7660;BME280;3872;47.902;8.162;2022-11-20T05:03:49;91417.34;;;2.21;100.00
7660;BME280;3872;47.902;8.162;2022-11-20T05:06:17;91416.59;;;2.25;100.00
7660;BME280;3872;47.902;8.162;2022-11-20T05:08:44;91414.00;;;2.30;100.00
7660;BME280;3872;47.902;8.162;2022-11-20T05:11:13;91411.22;;;2.52;100.00
7660;BME280;3872;47.902;8.162;2022-11-20T05:13:40;91420.06;;;2.61;100.00
7660;BME280;3872;47.902;8.162;2022-11-20T05:16:10;91420.56;;;2.48;100.00
7660;BME280;3872;47.902;8.162;2022-11-20T05:18:37;91415.88;;;2.50;100.00
7660;BME280;3872;47.902;8.162;2022-11-20T05:21:05;91408.91;;;2.61;100.00
7660;BME280;3872;47.902;8.162;2022-11-20T05:23:33;91413.56;;;2.59;100.00
7660;BME280;3872;47.902;8.162;2022-11-20T05:26:00;91418.78;;;2.79;100.00
7660;BME280;3872;47.902;8.162;2022-11-20T05:28:28;91415.16;;;2.75;100.00
7660;BME280;3872;47.902;8.162;2022-11-20T05:30:55;91426.03;;;2.57;100.00
7660;BME280;3872;47.902;8.162;2022-11-20T05:33:23;91420.06;;;2.61;100.00
7660;BME280;3872;47.902;8.162;2022-11-20T05:35:49;91413.06;;;2.67;100.00
7660;BME280;3872;47.902;8.162;2022-11-20T05:38:16;91417.22;;;2.73;100.00
7660;BME280;3872;47.902;8.162;2022-11-20T05:40:42;91414.38;;;2.80;100.00
7660;BME280;3872;47.902;8.162;2022-11-20T05:43:09;91414.38;;;2.85;100.00
7660;BME280;3872;47.902;8.162;2022-11-20T05:45:35;91416.72;;;2.81;100.00
7660;BME280;3872;47.902;8.162;2022-11-20T05:48:02;91412.34;;;3.12;100.00
7660;BME280;3872;47.902;8.162;2022-11-20T05:50:30;91412.31;;;3.07;100.00
7660;BME280;3872;47.902;8.162;2022-11-20T05:52:57;91416.75;;;3.22;100.00
7660;BME280;3872;47.902;8.162;2022-11-20T05:55:24;91417.03;;;3.15;100.00
7660;BME280;3872;47.902;8.162;2022-11-20T05:57:52;91411.03;;;3.09;100.00
7660;BME280;3872;47.902;8.162;2022-11-20T06:00:18;91416.97;;;2.80;100.00
7660;BME280;3872;47.902;8.162;2022-11-20T06:02:45;91411.81;;;3.15;100.00
7660;BME280;3872;47.902;8.162;2022-11-20T06:05:11;91415.97;;;3.36;100.00
7660;BME280;3872;47.902;8.162;2022-11-20T06:07:39;91414.16;;;3.52;100.00
7660;BME280;3872;47.902;8.162;2022-11-20T06:10:06;91410.78;;;3.46;100.00
7660;BME280;3872;47.902;8.162;2022-11-20T06:12:33;91407.13;;;3.27;100.00
7660;BME280;3872;47.902;8.162;2022-11-20T06:14:59;91412.06;;;3.08;100.00
7660;BME280;3872;47.902;8.162;2022-11-20T06:17:26;91408.97;;;3.17;100.00
7660;BME280;3872;47.902;8.162;2022-11-20T06:19:53;91419.09;;;2.98;100.00
7660;BME280;3872;47.902;8.162;2022-11-20T06:22:19;91421.19;;;3.26;100.00
7660;BME280;3872;47.902;8.162;2022-11-20T06:24:47;91421.72;;;3.18;100.00
7660;BME280;3872;47.902;8.162;2022-11-20T06:27:14;91424.81;;;3.30;100.00
7660;BME280;3872;47.902;8.162;2022-11-20T06:29:40;91413.38;;;3.16;100.00
7660;BME280;3872;47.902;8.162;2022-11-20T06:32:07;91418.06;;;3.39;100.00
7660;BME280;3872;47.902;8.162;2022-11-20T06:34:34;91429.50;;;3.33;100.00
7660;BME280;3872;47.902;8.162;2022-11-20T06:37:00;91421.69;;;3.53;100.00
7660;BME280;3872;47.902;8.162;2022-11-20T06:39:27;91422.72;;;3.73;100.00
7660;BME280;3872;47.902;8.162;2022-11-20T06:41:55;91419.84;;;3.79;100.00
7660;BME280;3872;47.902;8.162;2022-11-20T06:44:22;91427.91;;;3.83;100.00
7660;BME280;3872;47.902;8.162;2022-11-20T06:46:48;91426.34;;;3.72;100.00
7660;BME280;3872;47.902;8.162;2022-11-20T06:49:15;91420.66;;;3.60;100.00
7660;BME280;3872;47.902;8.162;2022-11-20T06:51:42;91431.28;;;3.83;100.00
7660;BME280;3872;47.902;8.162;2022-11-20T06:54:08;91433.41;;;3.61;100.00
7660;BME280;3872;47.902;8.162;2022-11-20T06:56:35;91435.22;;;3.25;100.00
7660;BME280;3872;47.902;8.162;2022-11-20T06:59:04;91436.53;;;3.38;100.00
7660;BME280;3872;47.902;8.162;2022-11-20T07:01:31;91439.63;;;3.35;100.00
7660;BME280;3872;47.902;8.162;2022-11-20T07:03:58;91440.19;;;3.27;100.00
7660;BME280;3872;47.902;8.162;2022-11-20T07:06:24;91438.31;;;3.02;100.00
7660;BME280;3872;47.902;8.162;2022-11-20T07:08:51;91446.91;;;3.43;100.00
7660;BME280;3872;47.902;8.162;2022-11-20T07:11:18;91447.97;;;3.52;100.00
7660;BME280;3872;47.902;8.162;2022-11-20T07:13:45;91451.09;;;3.19;100.00
7660;BME280;3872;47.902;8.162;2022-11-20T07:16:12;91461.50;;;3.59;100.00
7660;BME280;3872;47.902;8.162;2022-11-20T07:18:39;91454.72;;;3.58;100.00
7660;BME280;3872;47.902;8.162;2022-11-20T07:21:08;91447.69;;;3.79;100.00
7660;BME280;3872;47.902;8.162;2022-11-20T07:23:35;91441.66;;;3.93;100.00
7660;BME280;3872;47.902;8.162;2022-11-20T07:26:03;91446.91;;;3.63;100.00
7660;BME280;3872;47.902;8.162;2022-11-20T07:28:30;91451.59;;;3.66;100.00
7660;BME280;3872;47.902;8.162;2022-11-20T07:30:56;91452.34;;;3.97;100.00
7660;BME280;3872;47.902;8.162;2022-11-20T07:33:24;91462.25;;;3.80;100.00
7660;BME280;3872;47.902;8.162;2022-11-20T07:35:50;91453.13;;;3.98;100.00
7660;BME280;3872;47.902;8.162;2022-11-20T07:38:17;91454.41;;;4.00;100.00
7660;BME280;3872;47.902;8.162;2022-11-20T07:40:44;91460.91;;;4.03;100.00
7660;BME280;3872;47.902;8.162;2022-11-20T07:43:10;91464.09;;;3.54;100.00
7660;BME280;3872;47.902;8.162;2022-11-20T07:45:37;91462.78;;;3.67;100.00
7660;BME280;3872;47.902;8.162;2022-11-20T07:48:04;91459.94;;;3.48;100.00
7660;BME280;3872;47.902;8.162;2022-11-20T07:50:32;91453.66;;;3.94;100.00
7660;BME280;3872;47.902;8.162;2022-11-20T07:53:02;91456.53;;;3.73;100.00
7660;BME280;3872;47.902;8.162;2022-11-20T07:55:29;91465.38;;;3.41;100.00
7660;BME280;3872;47.902;8.162;2022-11-20T07:57:56;91462.25;;;3.49;100.00
7660;BME280;3872;47.902;8.162;2022-11-20T08:00:24;91461.75;;;3.52;100.00
7660;BME280;3872;47.902;8.162;2022-11-20T08:02:50;91458.06;;;3.99;100.00
7660;BME280;3872;47.902;8.162;2022-11-20T08:05:17;91470.59;;;3.72;100.00
7660;BME280;3872;47.902;8.162;2022-11-20T08:07:45;91468.50;;;3.79;100.00
7660;BME280;3872;47.902;8.162;2022-11-20T08:10:13;91471.34;;;3.87;100.00
7660;BME280;3872;47.902;8.162;2022-11-20T08:12:44;91474.47;;;3.89;100.00
7660;BME280;3872;47.902;8.162;2022-11-20T08:15:28;91469.44;;;4.28;100.00
7660;BME280;3872;47.902;8.162;2022-11-20T08:17:59;91471.59;;;3.91;100.00
7660;BME280;3872;47.902;8.162;2022-11-20T08:20:26;91470.78;;;4.06;100.00
7660;BME280;3872;47.902;8.162;2022-11-20T08:22:58;91476.47;;;4.28;100.00
7660;BME280;3872;47.902;8.162;2022-11-20T08:25:26;91473.09;;;4.27;100.00
7660;BME280;3872;47.902;8.162;2022-11-20T08:27:52;91481.19;;;4.26;100.00
7660;BME280;3872;47.902;8.162;2022-11-20T08:30:19;91478.13;;;3.73;100.00
7660;BME280;3872;47.902;8.162;2022-11-20T08:32:45;91484.63;;;3.81;100.00
7660;BME280;3872;47.902;8.162;2022-11-20T08:35:12;91489.03;;;3.96;100.00
7660;BME280;3872;47.902;8.162;2022-11-20T08:37:38;91495.84;;;3.61;100.00
7660;BME280;3872;47.902;8.162;2022-11-20T08:40:10;91501.00;;;4.07;100.00
7660;BME280;3872;47.902;8.162;2022-11-20T08:42:37;91501.78;;;4.07;100.00
7660;BME280;3872;47.902;8.162;2022-11-20T08:45:04;91503.09;;;3.94;100.00
7660;BME280;3872;47.902;8.162;2022-11-20T08:47:31;91509.59;;;4.07;100.00
7660;BME280;3872;47.902;8.162;2022-11-20T08:49:57;91510.13;;;3.89;100.00
7660;BME280;3872;47.902;8.162;2022-11-20T08:52:24;91516.63;;;4.07;100.00
7660;BME280;3872;47.902;8.162;2022-11-20T08:54:50;91513.25;;;4.01;100.00
7660;BME280;3872;47.902;8.162;2022-11-20T08:57:18;91520.53;;;3.59;100.00
7660;BME280;3872;47.902;8.162;2022-11-20T08:59:45;91517.41;;;4.02;100.00
7660;BME280;3872;47.902;8.162;2022-11-20T09:02:11;91515.09;;;3.96;100.00
7660;BME280;3872;47.902;8.162;2022-11-20T09:04:38;91509.88;;;3.60;100.00
7660;BME280;3872;47.902;8.162;2022-11-20T09:07:04;91512.47;;;4.11;100.00
7660;BME280;3872;47.902;8.162;2022-11-20T09:09:31;91514.56;;;3.63;100.00
7660;BME280;3872;47.902;8.162;2022-11-20T09:11:58;91521.06;;;3.96;100.00
7660;BME280;3872;47.902;8.162;2022-11-20T09:14:25;91511.44;;;3.97;100.00
7660;BME280;3872;47.902;8.162;2022-11-20T09:16:54;91520.78;;;4.08;100.00
7660;BME280;3872;47.902;8.162;2022-11-20T09:19:21;91521.00;;;4.31;100.00
7660;BME280;3872;47.902;8.162;2022-11-20T09:21:47;91521.00;;;4.37;100.00
7660;BME280;3872;47.902;8.162;2022-11-20T09:24:14;91517.09;;;4.34;100.00
7660;BME280;3872;47.902;8.162;2022-11-20T09:26:40;91521.59;;;3.83;100.00
7660;BME280;3872;47.902;8.162;2022-11-20T09:29:07;91519.47;;;4.05;100.00
7660;BME280;3872;47.902;8.162;2022-11-20T09:31:35;91515.28;;;4.29;100.00
7660;BME280;3872;47.902;8.162;2022-11-20T09:34:01;91517.25;;;4.63;100.00
7660;BME280;3872;47.902;8.162;2022-11-20T09:36:28;91520.91;;;4.62;100.00
7660;BME280;3872;47.902;8.162;2022-11-20T09:38:54;91519.06;;;4.72;100.00
7660;BME280;3872;47.902;8.162;2022-11-20T09:41:48;91532.41;;;4.51;100.00
7660;BME280;3872;47.902;8.162;2022-11-20T09:44:34;91542.66;;;3.91;100.00
7660;BME280;3872;47.902;8.162;2022-11-20T09:47:09;91539.81;;;3.93;100.00
7660;BME280;3872;47.902;8.162;2022-11-20T09:49:52;91535.63;;;3.72;100.00
7660;BME280;3872;47.902;8.162;2022-11-20T09:52:33;91527.56;;;4.09;100.00
7660;BME280;3872;47.902;8.162;2022-11-20T09:55:04;91528.88;;;4.01;100.00
7660;BME280;3872;47.902;8.162;2022-11-20T09:57:36;91529.81;;;4.51;100.00
7660;BME280;3872;47.902;8.162;2022-11-20T10:00:06;91529.03;;;4.60;100.00
7660;BME280;3872;47.902;8.162;2022-11-20T10:02:44;91533.03;;;3.87;100.00
7660;BME280;3872;47.902;8.162;2022-11-20T10:05:18;91536.94;;;4.05;100.00
7660;BME280;3872;47.902;8.162;2022-11-20T10:07:48;91537.13;;;4.44;100.00
7660;BME280;3872;47.902;8.162;2022-11-20T10:10:28;91537.59;;;4.56;100.00
7660;BME280;3872;47.902;8.162;2022-11-20T10:13:05;91543.97;;;4.04;100.00
7660;BME280;3872;47.902;8.162;2022-11-20T10:15:44;91541.09;;;4.16;100.00
7660;BME280;3872;47.902;8.162;2022-11-20T10:18:23;91545.00;;;3.88;100.00
7660;BME280;3872;47.902;8.162;2022-11-20T10:20:59;91552.56;;;4.00;100.00
7660;BME280;3872;47.902;8.162;2022-11-20T10:24:00;91548.66;;;3.62;100.00
7660;BME280;3872;47.902;8.162;2022-11-20T10:26:37;91539.00;;;3.42;100.00
7660;BME280;3872;47.902;8.162;2022-11-20T10:29:11;91538.78;;;3.89;100.00
7660;BME280;3872;47.902;8.162;2022-11-20T10:31:40;91528.84;;;4.16;100.00
7660;BME280;3872;47.902;8.162;2022-11-20T10:34:19;91523.41;;;3.82;100.00
7660;BME280;3872;47.902;8.162;2022-11-20T10:36:51;91525.72;;;4.14;100.00
7660;BME280;3872;47.902;8.162;2022-11-20T10:39:24;91520.47;;;4.45;100.00
7660;BME280;3872;47.902;8.162;2022-11-20T10:41:55;91525.97;;;4.33;100.00
7660;BME280;3872;47.902;8.162;2022-11-20T10:44:26;91530.69;;;3.70;100.00
7660;BME280;3872;47.902;8.162;2022-11-20T10:47:17;91535.88;;;4.21;100.00
7660;BME280;3872;47.902;8.162;2022-11-20T10:49:47;91528.00;;;4.41;100.00
7660;BME280;3872;47.902;8.162;2022-11-20T10:52:21;91527.22;;;4.41;100.00
7660;BME280;3872;47.902;8.162;2022-11-20T10:54:59;91518.91;;;4.39;100.00
7660;BME280;3872;47.902;8.162;2022-11-20T10:57:46;91523.66;;;3.91;100.00
7660;BME280;3872;47.902;8.162;2022-11-20T11:00:16;91513.63;;;4.64;100.00
7660;BME280;3872;47.902;8.162;2022-11-20T11:02:47;91510.91;;;4.94;100.00
7660;BME280;3872;47.902;8.162;2022-11-20T11:05:27;91506.16;;;5.01;100.00
7660;BME280;3872;47.902;8.162;2022-11-20T11:07:58;91504.34;;;5.02;100.00
7660;BME280;3872;47.902;8.162;2022-11-20T11:10:28;91486.28;;;5.16;100.00
7660;BME280;3872;47.902;8.162;2022-11-20T11:12:59;91496.56;;;4.92;100.00
7660;BME280;3872;47.902;8.162;2022-11-20T11:15:28;91495.44;;;4.44;100.00
7660;BME280;3872;47.902;8.162;2022-11-20T11:17:55;91502.03;;;4.06;100.00
7660;BME280;3872;47.902;8.162;2022-11-20T11:20:25;91498.44;;;3.76;100.00
7660;BME280;3872;47.902;8.162;2022-11-20T11:22:53;91496.38;;;3.48;100.00
7660;BME280;3872;47.902;8.162;2022-11-20T11:25:27;91491.66;;;3.90;100.00
7660;BME280;3872;47.902;8.162;2022-11-20T11:27:55;91499.47;;;3.90;100.00
7660;BME280;3872;47.902;8.162;2022-11-20T11:30:24;91501.50;;;4.14;100.00
7660;BME280;3872;47.902;8.162;2022-11-20T11:33:02;91497.41;;;3.82;100.00
7660;BME280;3872;47.902;8.162;2022-11-20T11:35:30;91489.34;;;3.69;100.00
7660;BME280;3872;47.902;8.162;2022-11-20T11:38:04;91480.69;;;4.19;100.00
7660;BME280;3872;47.902;8.162;2022-11-20T11:40:34;91458.16;;;5.07;100.00
7660;BME280;3872;47.902;8.162;2022-11-20T11:43:05;91462.19;;;4.90;100.00
7660;BME280;3872;47.902;8.162;2022-11-20T11:45:54;91461.13;;;5.30;100.00
7660;BME280;3872;47.902;8.162;2022-11-20T11:48:20;91462.16;;;5.34;100.00
7660;BME280;3872;47.902;8.162;2022-11-20T11:50:49;91458.00;;;5.33;100.00
7660;BME280;3872;47.902;8.162;2022-11-20T11:53:18;91458.91;;;4.59;100.00
7660;BME280;3872;47.902;8.162;2022-11-20T11:55:49;91442.47;;;5.12;100.00
7660;BME280;3872;47.902;8.162;2022-11-20T12:01:10;91444.84;;;5.09;100.00
7660;BME280;3872;47.902;8.162;2022-11-20T12:03:39;91443.72;;;5.59;100.00
7660;BME280;3872;47.902;8.162;2022-11-20T12:06:12;91438.22;;;5.61;100.00
7660;BME280;3872;47.902;8.162;2022-11-20T12:08:44;91430.38;;;6.18;100.00
7660;BME280;3872;47.902;8.162;2022-11-20T12:11:19;91437.19;;;5.57;100.00
7660;BME280;3872;47.902;8.162;2022-11-20T12:13:52;91428.22;;;5.39;100.00
7660;BME280;3872;47.902;8.162;2022-11-20T12:16:20;91426.84;;;4.68;100.00
7660;BME280;3872;47.902;8.162;2022-11-20T12:18:49;91426.91;;;4.97;100.00
7660;BME280;3872;47.902;8.162;2022-11-20T12:21:20;91422.66;;;4.67;100.00
7660;BME280;3872;47.902;8.162;2022-11-20T12:26:56;91420.69;;;5.32;100.00
7660;BME280;3872;47.902;8.162;2022-11-20T12:29:35;91416.75;;;5.98;100.00
7660;BME280;3872;47.902;8.162;2022-11-20T12:32:36;91409.81;;;5.88;100.00
7660;BME280;3872;47.902;8.162;2022-11-20T12:35:12;91427.34;;;5.77;100.00
7660;BME280;3872;47.902;8.162;2022-11-20T12:37:52;91408.59;;;6.71;100.00
7660;BME280;3872;47.902;8.162;2022-11-20T12:40:28;91410.81;;;6.16;100.00
7660;BME280;3872;47.902;8.162;2022-11-20T12:43:06;91410.97;;;6.48;100.00
7660;BME280;3872;47.902;8.162;2022-11-20T12:46:12;91417.47;;;6.27;100.00
7660;BME280;3872;47.902;8.162;2022-11-20T12:48:53;91409.72;;;6.22;100.00
7660;BME280;3872;47.902;8.162;2022-11-20T12:51:39;91411.38;;;6.13;100.00
7660;BME280;3872;47.902;8.162;2022-11-20T12:57:10;91414.72;;;4.88;100.00
7660;BME280;3872;47.902;8.162;2022-11-20T12:59:52;91414.22;;;5.25;100.00
7660;BME280;3872;47.902;8.162;2022-11-20T13:02:27;91414.22;;;5.25;100.00
7660;BME280;3872;47.902;8.162;2022-11-20T13:05:17;91421.94;;;5.40;100.00
7660;BME280;3872;47.902;8.162;2022-11-20T13:07:44;91414.28;;;5.15;100.00
7660;BME280;3872;47.902;8.162;2022-11-20T13:10:18;91414.06;;;5.06;100.00
7660;BME280;3872;47.902;8.162;2022-11-20T13:12:52;91418.31;;;4.53;100.00
7660;BME280;3872;47.902;8.162;2022-11-20T13:15:31;91405.09;;;5.56;100.00
7660;BME280;3872;47.902;8.162;2022-11-20T13:18:04;91413.66;;;4.94;100.00
7660;BME280;3872;47.902;8.162;2022-11-20T13:20:34;91407.78;;;5.12;100.00
7660;BME280;3872;47.902;8.162;2022-11-20T13:23:02;91402.75;;;5.21;100.00
7660;BME280;3872;47.902;8.162;2022-11-20T13:25:31;91408.94;;;4.96;100.00
7660;BME280;3872;47.902;8.162;2022-11-20T13:28:00;91397.94;;;4.60;100.00
7660;BME280;3872;47.902;8.162;2022-11-20T13:30:36;91391.34;;;5.17;100.00
7660;BME280;3872;47.902;8.162;2022-11-20T13:33:07;91390.53;;;4.82;100.00
7660;BME280;3872;47.902;8.162;2022-11-20T13:35:37;91380.91;;;5.17;100.00
7660;BME280;3872;47.902;8.162;2022-11-20T13:38:08;91377.81;;;4.70;100.00
7660;BME280;3872;47.902;8.162;2022-11-20T13:40:38;91385.19;;;4.58;100.00
7660;BME280;3872;47.902;8.162;2022-11-20T13:43:18;91376.09;;;4.51;100.00
7660;BME280;3872;47.902;8.162;2022-11-20T13:45:55;91376.31;;;5.03;100.00
7660;BME280;3872;47.902;8.162;2022-11-20T13:48:23;91368.75;;;5.02;100.00